createdAt,value
2019-04-27T00:08:53.420Z,36.20
2019-04-27T00:33:16.346Z,35.57
2019-04-27T00:41:14.049Z,38.63
2019-04-27T00:51:25.455Z,38.93
2019-04-27T01:22:14.251Z,29.00
2019-04-27T01:25:19.648Z,37.17
2019-04-27T01:31:02.202Z,38.50
2019-04-27T01:39:29.763Z,46.87
2019-04-27T01:44:55.070Z,41.43
2019-04-27T01:47:56.533Z,40.13
2019-04-27T01:50:52.494Z,36.57
2019-04-27T01:54:10.322Z,36.60
2019-04-27T01:57:01.008Z,32.40
2019-04-27T02:02:34.293Z,33.17
2019-04-27T02:08:28.800Z,36.40
2019-04-27T02:10:59.539Z,30.27
2019-04-27T02:13:44.726Z,34.77
2019-04-27T02:48:02.626Z,27.83
2019-04-27T03:07:34.804Z,38.53
2019-04-27T03:27:42.729Z,19.00
2019-04-27T03:40:53.041Z,13.40
2019-04-27T03:43:50.186Z,16.40
2019-04-27T03:50:09.796Z,14.40
2019-04-27T04:18:53.630Z,10.13
2019-04-27T04:25:50.134Z,10.33
2019-04-27T04:28:40.616Z,15.50
2019-04-27T04:32:16.435Z,7.20
2019-04-27T05:00:30.282Z,2.37
2019-04-27T05:03:21.878Z,8.63
2019-04-27T05:09:22.580Z,2.87
2019-04-27T05:31:16.717Z,4.70
2019-04-27T05:40:35.182Z,3.10
2019-04-27T05:42:48.834Z,3.30
2019-04-27T05:46:09.976Z,3.90
2019-04-27T05:54:44.239Z,4.40
2019-04-27T06:00:25.422Z,5.90
2019-04-27T06:34:39.598Z,3.73
2019-04-27T06:52:02.767Z,5.13
2019-04-27T06:55:35.481Z,7.80
2019-04-27T06:58:02.032Z,5.47
2019-04-27T07:10:08.993Z,4.60
2019-04-27T07:13:12.245Z,2.87
2019-04-27T07:16:09.628Z,7.97
2019-04-27T07:18:13.504Z,3.07
2019-04-27T07:20:20.778Z,4.13
2019-04-27T07:22:36.851Z,2.63
2019-04-27T07:24:56.134Z,2.50
2019-04-27T07:30:24.148Z,7.07
2019-04-27T07:36:00.725Z,3.93
2019-04-27T07:38:36.245Z,5.80
2019-04-27T07:43:46.544Z,6.97
2019-04-27T07:46:02.904Z,4.00
2019-04-27T07:48:18.799Z,7.90
2019-04-27T07:50:42.197Z,3.90
2019-04-27T07:52:58.795Z,3.83
2019-04-27T07:55:23.181Z,4.77
2019-04-27T07:57:49.536Z,3.87
2019-04-27T08:00:19.045Z,2.53
2019-04-27T08:02:48.614Z,8.83
2019-04-27T08:05:19.247Z,4.03
2019-04-27T08:07:40.086Z,8.13
2019-04-27T08:10:10.484Z,3.67
2019-04-27T08:35:56.912Z,4.83
2019-04-27T08:42:55.690Z,6.80
2019-04-27T08:45:15.884Z,7.07
2019-04-27T08:47:41.906Z,6.23
2019-04-27T08:50:04.873Z,6.90
2019-04-27T08:52:42.092Z,14.43
2019-04-27T08:55:05.768Z,4.03
2019-04-27T08:57:39.481Z,5.27
2019-04-27T08:59:59.713Z,8.63
2019-04-27T09:02:39.847Z,6.83
2019-04-27T09:04:53.323Z,11.33
2019-04-27T09:07:31.768Z,7.20
2019-04-27T09:13:11.930Z,11.13
2019-04-27T09:22:15.300Z,8.67
2019-04-27T09:30:26.654Z,12.70
2019-04-27T09:32:38.393Z,8.30
2019-04-27T09:34:54.580Z,9.43
2019-04-27T09:37:46.092Z,8.03
2019-04-27T09:40:02.529Z,6.97
2019-04-27T09:42:27.974Z,10.77
2019-04-27T09:48:26.768Z,11.40
2019-04-27T09:54:31.651Z,6.30
2019-04-27T09:57:16.048Z,7.87
2019-04-27T10:00:06.397Z,8.20
2019-04-27T10:02:16.964Z,6.57
2019-04-27T10:04:46.315Z,7.70
2019-04-27T10:07:32.219Z,10.40
2019-04-27T10:09:52.283Z,7.57
2019-04-27T10:12:05.299Z,6.60
2019-04-27T10:14:52.718Z,6.03
2019-04-27T10:16:58.934Z,5.10
2019-04-27T10:19:33.077Z,8.83
2019-04-27T10:21:40.637Z,8.63
2019-04-27T10:23:56.861Z,8.27
2019-04-27T10:26:01.491Z,6.43
2019-04-27T10:30:35.835Z,8.10
2019-04-27T10:32:48.970Z,5.27
2019-04-27T10:34:55.879Z,4.27
2019-04-27T10:37:10.415Z,4.57
2019-04-27T10:39:17.969Z,5.57
2019-04-27T10:41:29.381Z,6.57
2019-04-27T10:43:33.660Z,4.57
2019-04-27T10:46:01.268Z,5.90
2019-04-27T10:48:08.693Z,9.10
2019-04-27T10:50:20.757Z,6.53
2019-04-27T10:52:28.276Z,5.90
2019-04-27T10:54:38.428Z,9.77
2019-04-27T10:56:45.938Z,5.37
2019-04-27T10:58:59.964Z,5.13
2019-04-27T11:01:11.765Z,6.80
2019-04-27T11:03:19.291Z,17.67
2019-04-27T11:05:35.922Z,6.20
2019-04-27T11:07:46.258Z,6.03
2019-04-27T11:09:55.869Z,8.57
2019-04-27T11:12:06.933Z,5.70
2019-04-27T11:14:11.197Z,11.47
2019-04-27T11:16:15.930Z,5.60
2019-04-27T11:18:27.767Z,9.97
2019-04-27T11:20:40.312Z,7.00
2019-04-27T11:22:48.455Z,7.03
2019-04-27T11:25:03.959Z,2.40
2019-04-27T11:27:32.122Z,2.47
2019-04-27T11:29:41.940Z,4.07
2019-04-27T11:31:50.157Z,3.50
2019-04-27T11:33:56.765Z,8.20
2019-04-27T11:36:37.881Z,6.90
2019-04-27T11:38:56.454Z,7.17
2019-04-27T11:41:00.608Z,6.50
2019-04-27T11:43:16.896Z,9.93
2019-04-27T11:45:26.452Z,8.10
2019-04-27T11:47:36.488Z,7.93
2019-04-27T11:49:48.484Z,6.57
2019-04-27T11:51:56.733Z,10.33
2019-04-27T11:54:06.239Z,10.57
2019-04-27T11:56:13.907Z,11.23
2019-04-27T11:58:22.674Z,17.70
2019-04-27T12:00:29.996Z,12.77
2019-04-27T12:02:37.044Z,12.93
2019-04-27T12:04:53.778Z,15.63
2019-04-27T12:06:59.367Z,10.50
2019-04-27T12:09:05.619Z,10.70
2019-04-27T12:11:18.244Z,11.33
2019-04-27T12:13:31.518Z,5.30
2019-04-27T12:15:36.188Z,4.00
2019-04-27T12:17:46.066Z,2.60
2019-04-27T12:19:51.075Z,11.23
2019-04-27T12:21:56.525Z,13.07
2019-04-27T12:24:01.155Z,9.27
2019-04-27T12:26:33.735Z,13.63
2019-04-27T12:28:47.681Z,7.67
2019-04-27T12:31:09.153Z,16.17
2019-04-27T12:33:20.603Z,9.03
2019-04-27T12:35:25.663Z,15.00
2019-04-27T12:37:35.808Z,4.07
2019-04-27T12:39:47.927Z,5.70
2019-04-27T12:42:00.894Z,12.07
2019-04-27T12:44:09.709Z,15.33
2019-04-27T12:46:18.929Z,6.73
2019-04-27T12:48:29.963Z,10.90
2019-04-27T12:50:37.203Z,12.87
2019-04-27T12:52:43.528Z,6.73
2019-04-27T12:55:07.086Z,8.57
2019-04-27T12:57:26.208Z,11.67
2019-04-27T12:59:51.064Z,10.13
2019-04-27T13:01:56.138Z,3.30
2019-04-27T13:04:00.422Z,9.60
2019-04-27T13:06:08.519Z,13.87
2019-04-27T13:08:20.169Z,6.90
2019-04-27T13:10:26.116Z,9.37
2019-04-27T13:12:30.557Z,13.90
2019-04-27T13:14:37.337Z,9.87
2019-04-27T13:16:42.192Z,8.30
2019-04-27T13:18:46.260Z,21.23
2019-04-27T13:20:53.994Z,11.60
2019-04-27T13:23:01.956Z,7.67
2019-04-27T13:25:07.169Z,10.60
2019-04-27T13:27:23.261Z,10.40
2019-04-27T13:29:39.747Z,7.70
2019-04-27T13:31:58.825Z,8.57
2019-04-27T13:34:06.285Z,9.17
2019-04-27T13:36:10.677Z,9.53
2019-04-27T13:38:16.125Z,7.90
2019-04-27T13:40:28.384Z,14.23
2019-04-27T13:42:34.557Z,14.43
2019-04-27T13:44:39.568Z,8.60
2019-04-27T13:47:06.110Z,7.27
2019-04-27T13:49:27.723Z,11.53
2019-04-27T13:51:52.409Z,16.60
2019-04-27T13:53:56.522Z,21.33
2019-04-27T13:56:06.378Z,8.30
2019-04-27T13:58:10.704Z,9.03
2019-04-27T14:00:15.326Z,8.03
2019-04-27T14:02:23.604Z,7.20
2019-04-27T14:04:29.102Z,4.53
2019-04-27T14:06:33.631Z,7.40
2019-04-27T14:08:38.304Z,6.53
2019-04-27T14:10:45.754Z,6.40
2019-04-27T14:12:50.177Z,6.40
2019-04-27T14:14:54.781Z,9.83
2019-04-27T14:17:00.817Z,13.13
2019-04-27T14:19:08.905Z,19.93
2019-04-27T14:21:16.110Z,6.00
2019-04-27T14:23:21.978Z,9.77
2019-04-27T14:25:29.030Z,7.83
2019-04-27T14:27:40.685Z,7.83
2019-04-27T14:29:45.407Z,11.93
2019-04-27T14:31:49.757Z,7.30
2019-04-27T14:33:54.337Z,13.37
2019-04-27T14:35:59.383Z,8.23
2019-04-27T14:38:03.690Z,9.67
2019-04-27T14:40:08.499Z,6.37
2019-04-27T14:42:13.166Z,8.13
2019-04-27T14:44:18.739Z,11.53
2019-04-27T14:46:23.233Z,7.10
2019-04-27T14:48:29.311Z,7.80
2019-04-27T14:50:40.255Z,6.00
2019-04-27T14:52:43.318Z,6.90
2019-04-27T14:54:50.556Z,18.73
2019-04-27T14:56:53.518Z,6.10
2019-04-27T14:58:58.738Z,5.63
2019-04-27T15:01:03.292Z,9.10
2019-04-27T15:03:07.628Z,12.43
2019-04-27T15:05:11.877Z,6.63
2019-04-27T15:07:19.434Z,10.20
2019-04-27T15:09:24.028Z,7.83
2019-04-27T15:11:31.374Z,9.90
2019-04-27T15:13:37.860Z,11.83
2019-04-27T15:15:40.512Z,7.13
2019-04-27T15:17:44.773Z,8.27
2019-04-27T15:19:54.893Z,8.60
2019-04-27T15:22:01.197Z,11.93
2019-04-27T15:24:12.000Z,11.87
2019-04-27T15:26:11.081Z,15.97
2019-04-27T15:28:18.056Z,5.93
2019-04-27T15:30:39.627Z,24.50
2019-04-27T16:07:24.692Z,4.93
2019-04-27T16:09:36.026Z,6.17
2019-04-27T16:11:58.390Z,4.30
2019-04-27T16:14:06.752Z,13.80
2019-04-27T16:28:37.379Z,10.20
2019-04-27T16:31:14.651Z,4.73
2019-04-27T16:54:10.592Z,9.37
2019-04-27T16:57:00.199Z,5.03
2019-04-27T16:59:33.897Z,5.47
2019-04-27T17:01:29.993Z,5.03
2019-04-27T17:04:20.137Z,16.03
2019-04-27T17:07:04.795Z,4.53
2019-04-27T17:09:36.402Z,8.37
2019-04-27T17:11:59.593Z,4.80
2019-04-27T17:17:19.643Z,3.83
2019-04-27T17:19:49.934Z,5.23
2019-04-27T17:21:58.720Z,5.40
2019-04-27T17:24:49.261Z,4.83
2019-04-27T17:26:55.669Z,12.27
2019-04-27T17:29:31.079Z,7.47
2019-04-27T17:32:00.518Z,7.10
2019-04-27T17:34:28.595Z,8.57
2019-04-27T17:36:59.982Z,12.87
2019-04-27T17:39:10.957Z,12.10
2019-04-27T17:41:30.133Z,11.17
2019-04-27T17:43:58.914Z,3.53
2019-04-27T17:46:31.030Z,6.30
2019-04-27T17:49:08.329Z,9.00
2019-04-27T17:51:20.217Z,9.77
2019-04-27T17:53:33.033Z,6.30
2019-04-27T17:55:50.326Z,9.47
2019-04-27T17:58:23.114Z,14.40
2019-04-27T18:00:44.544Z,28.07
2019-04-27T18:02:55.261Z,32.43
2019-04-27T18:05:15.459Z,12.47
2019-04-27T18:07:48.801Z,14.60
2019-04-27T18:10:22.704Z,15.10
2019-04-27T18:12:34.418Z,10.40
2019-04-27T18:14:44.657Z,11.37
2019-04-27T18:17:22.849Z,10.47
2019-04-27T18:19:48.146Z,9.23
2019-04-27T18:22:08.016Z,18.63
2019-04-27T18:24:37.990Z,17.43
2019-04-27T18:27:00.566Z,8.83
2019-04-27T18:29:01.706Z,6.23
2019-04-27T18:31:21.396Z,6.67
2019-04-27T18:33:37.214Z,9.30
2019-04-27T18:35:49.210Z,16.97
2019-04-27T18:40:38.192Z,9.53
2019-04-27T18:43:12.635Z,8.77
2019-04-27T18:45:18.452Z,14.47
2019-04-27T18:47:31.193Z,12.00
2019-04-27T18:49:51.817Z,10.00
2019-04-27T18:52:19.290Z,12.63
2019-04-27T18:54:25.242Z,22.37
2019-04-27T18:56:43.359Z,15.63
2019-04-27T18:58:50.313Z,11.47
2019-04-27T19:01:13.113Z,15.73
2019-04-27T19:03:33.623Z,9.60
2019-04-27T19:05:58.327Z,14.93
2019-04-27T19:08:19.958Z,15.97
2019-04-27T19:10:34.493Z,10.97
2019-04-27T19:12:48.444Z,12.87
2019-04-27T19:14:52.916Z,14.93
2019-04-27T19:16:58.775Z,9.87
2019-04-27T19:19:21.699Z,10.13
2019-04-27T19:21:35.408Z,10.13
2019-04-27T19:24:08.934Z,9.23
2019-04-27T19:26:32.809Z,10.43
2019-04-27T19:29:02.781Z,24.93
2019-04-27T19:31:25.047Z,10.73
2019-04-27T19:33:53.068Z,17.03
2019-04-27T19:36:08.740Z,9.23
2019-04-27T19:38:25.568Z,18.40
2019-04-27T19:40:21.566Z,9.60
2019-04-27T19:42:31.047Z,20.17
2019-04-27T19:44:49.834Z,12.73
2019-04-27T19:46:54.201Z,22.30
2019-04-27T19:48:59.188Z,17.07
2019-04-27T19:51:06.113Z,12.80
2019-04-27T19:55:32.569Z,14.60
2019-04-27T19:57:40.310Z,14.90
2019-04-27T19:59:48.934Z,22.43
2019-04-27T20:01:55.406Z,13.33
2019-04-27T20:04:04.619Z,15.70
2019-04-27T20:06:08.823Z,24.67
2019-04-27T20:08:38.828Z,20.10
2019-04-27T20:11:17.130Z,19.60
2019-04-27T20:13:28.114Z,15.57
2019-04-27T20:16:11.459Z,14.17
2019-04-27T20:19:11.615Z,10.43
2019-04-27T20:21:50.801Z,13.90
2019-04-27T20:24:11.686Z,16.83
2019-04-27T20:26:48.272Z,16.37
2019-04-27T20:29:12.443Z,19.43
2019-04-27T20:31:52.185Z,23.57
2019-04-27T20:33:59.991Z,12.73
2019-04-27T20:36:08.974Z,14.67
2019-04-27T20:38:21.402Z,11.83
2019-04-27T20:40:24.911Z,18.47
2019-04-27T20:42:38.376Z,25.40
2019-04-27T20:44:43.224Z,25.20
2019-04-27T20:46:56.103Z,24.30
2019-04-27T20:49:18.132Z,17.87
2019-04-27T20:51:43.535Z,22.80
2019-04-27T20:53:56.159Z,17.20
2019-04-27T20:56:00.911Z,22.27
2019-04-27T20:58:17.277Z,23.87
2019-04-27T21:00:31.865Z,18.57
2019-04-27T21:02:51.853Z,26.90
2019-04-27T21:05:14.711Z,27.30
2019-04-27T21:07:42.467Z,18.73
2019-04-27T21:10:02.806Z,17.53
2019-04-27T21:12:12.380Z,23.87
2019-04-27T21:14:17.120Z,28.87
2019-04-27T21:16:21.139Z,20.00
2019-04-27T21:18:25.121Z,29.47
2019-04-27T21:20:30.833Z,22.73
2019-04-27T21:22:35.256Z,25.70
2019-04-27T21:24:41.221Z,25.43
2019-04-27T21:26:44.973Z,28.10
2019-04-27T21:28:49.005Z,20.30
2019-04-27T21:30:52.977Z,29.93
2019-04-27T21:33:01.112Z,21.47
2019-04-27T21:35:05.395Z,25.17
2019-04-27T21:37:12.671Z,25.03
2019-04-27T21:39:23.333Z,44.80
2019-04-27T21:41:27.393Z,32.00
2019-04-27T21:43:43.407Z,28.73
2019-04-27T21:46:03.393Z,30.73
2019-04-27T21:48:13.875Z,28.57
2019-04-27T21:50:36.069Z,33.03
2019-04-27T21:52:50.525Z,32.47
2019-04-27T21:54:55.360Z,32.50
2019-04-27T21:56:59.366Z,51.93
2019-04-27T21:59:03.790Z,31.17
2019-04-27T22:01:34.299Z,34.73
2019-04-27T22:03:38.516Z,43.27
2019-04-27T22:05:42.530Z,28.73
2019-04-27T22:07:46.526Z,35.43
2019-04-27T22:09:51.764Z,47.80
2019-04-27T22:11:55.941Z,44.17
2019-04-27T22:14:01.318Z,53.00
2019-04-27T22:16:05.644Z,48.37
2019-04-27T22:20:42.374Z,37.77
2019-04-27T22:22:48.490Z,40.80
2019-04-27T22:25:05.596Z,26.03
2019-04-27T22:27:09.702Z,40.97
2019-04-27T22:29:13.806Z,24.20
2019-04-27T22:31:22.580Z,34.83
2019-04-27T22:33:24.209Z,38.23
2019-04-27T22:35:28.361Z,31.03
2019-04-27T22:37:32.483Z,25.67
2019-04-27T22:40:12.025Z,24.77
2019-04-27T22:42:45.473Z,27.37
2019-04-27T22:44:53.817Z,31.90
2019-04-27T22:47:06.159Z,21.43
2019-04-27T22:49:10.962Z,27.03
2019-04-27T22:51:35.704Z,16.47
2019-04-27T22:53:54.333Z,35.37
2019-04-27T22:56:29.269Z,25.43
2019-04-27T22:58:34.392Z,42.63
2019-04-27T23:00:46.662Z,29.10
2019-04-27T23:02:53.739Z,25.27
2019-04-27T23:05:04.978Z,24.43
2019-04-27T23:07:18.414Z,38.50
2019-04-27T23:09:21.972Z,43.73
2019-04-27T23:11:33.941Z,30.97
2019-04-27T23:13:37.985Z,28.00
2019-04-27T23:15:45.480Z,22.30
2019-04-27T23:17:54.733Z,32.27
2019-04-27T23:20:05.481Z,22.60
2019-04-27T23:24:51.921Z,33.13
2019-04-27T23:26:56.371Z,31.73
2019-04-27T23:29:12.274Z,36.20
2019-04-27T23:31:21.918Z,31.70
2019-04-27T23:33:26.028Z,34.60
2019-04-27T23:35:32.757Z,49.87
2019-04-27T23:37:36.262Z,39.67
2019-04-27T23:39:40.678Z,53.40
2019-04-27T23:41:44.828Z,42.53
2019-04-27T23:43:49.238Z,41.70
2019-04-27T23:45:59.393Z,40.50
2019-04-27T23:48:12.163Z,52.93
2019-04-27T23:50:24.719Z,48.60
2019-04-27T23:53:11.825Z,41.13
2019-04-27T23:55:16.395Z,44.40
2019-04-27T23:57:21.800Z,44.67
2019-04-27T23:59:26.313Z,42.07
